Terminal Aerodrome Forecast
Issued by NWS

Home | Current Version | Previous Version | Text Only | Print | Product List | Glossary On
Versions: 1 2 3 4 5 6 7 8 9 10 11 12 13 14 15 16 17 18
000
FTPQ31 PGUM 142328
TAFGUM
TAF

TAF
PKMJ 142328Z 1500/1524 10008KT P6SM VCSH SCT014 BKN045 BKN110
      TEMPO 1500/1503 4SM SHRA SCT014 OVC030
     FM150500 07011KT P6SM VCSH SCT015 SCT050 BKN120=

USA.gov is the U.S. government's official web portal to all federal, state and local government web resources and services.